createdAt,value
2023-01-03T00:02:18.829Z,11.65
2023-01-03T00:05:04.548Z,6.38
2023-01-03T00:07:49.760Z,5.43
2023-01-03T00:10:35.352Z,6.40
2023-01-03T00:13:21.027Z,7.30
2023-01-03T00:16:15.471Z,4.22
2023-01-03T00:19:05.404Z,5.18
2023-01-03T00:21:51.324Z,4.50
2023-01-03T00:24:36.527Z,6.40
2023-01-03T00:27:22.194Z,4.43
2023-01-03T00:30:08.125Z,4.13
2023-01-03T00:32:53.772Z,3.78
2023-01-03T00:35:39.407Z,2.92
2023-01-03T00:38:24.894Z,4.07
2023-01-03T00:41:15.973Z,2.80
2023-01-03T00:44:01.426Z,3.85
2023-01-03T00:46:46.770Z,3.70
2023-01-03T00:49:32.230Z,6.05
2023-01-03T00:52:17.322Z,2.58
2023-01-03T00:55:02.875Z,3.65
2023-01-03T00:57:48.436Z,2.60
2023-01-03T01:00:34.414Z,3.78
2023-01-03T01:03:22.394Z,4.80
2023-01-03T01:06:20.159Z,5.60
2023-01-03T01:09:08.047Z,5.47
2023-01-03T01:11:54.396Z,5.40
2023-01-03T01:14:39.800Z,5.70
2023-01-03T01:17:28.275Z,3.53
2023-01-03T01:20:13.878Z,4.35
2023-01-03T01:22:59.059Z,5.32
2023-01-03T01:25:44.712Z,4.75
2023-01-03T01:28:30.292Z,6.60
2023-01-03T01:31:19.058Z,4.13
2023-01-03T01:34:05.163Z,4.45
2023-01-03T01:36:50.569Z,4.93
2023-01-03T01:39:35.818Z,5.38
2023-01-03T01:42:40.002Z,3.58
2023-01-03T01:45:25.217Z,3.97
2023-01-03T01:48:13.286Z,2.83
2023-01-03T01:50:59.033Z,3.03
2023-01-03T01:53:45.015Z,3.17
2023-01-03T01:56:36.493Z,4.90
2023-01-03T01:59:22.048Z,4.53
2023-01-03T02:02:09.851Z,4.22
2023-01-03T02:04:56.930Z,4.13
2023-01-03T02:07:43.753Z,2.92
2023-01-03T02:11:00.115Z,4.53
2023-01-03T02:14:22.586Z,4.65
2023-01-03T02:17:33.061Z,3.58
2023-01-03T02:20:45.994Z,4.60
2023-01-03T02:23:59.590Z,3.85
2023-01-03T02:27:13.098Z,4.15
2023-01-03T02:30:31.407Z,3.55
2023-01-03T02:33:28.425Z,3.10
2023-01-03T02:36:26.534Z,3.08
2023-01-03T02:39:27.251Z,4.53
2023-01-03T02:42:58.263Z,5.60
2023-01-03T02:45:52.604Z,4.90
2023-01-03T02:49:06.134Z,3.83
2023-01-03T02:51:55.412Z,3.80
2023-01-03T02:54:56.932Z,4.75
2023-01-03T02:57:50.859Z,4.38
2023-01-03T03:00:41.507Z,6.85
2023-01-03T03:03:35.883Z,4.07
2023-01-03T03:06:39.804Z,4.78
2023-01-03T03:09:25.601Z,5.28
2023-01-03T03:12:30.386Z,4.28
2023-01-03T03:15:22.882Z,4.35
2023-01-03T03:18:34.048Z,4.90
2023-01-03T03:21:39.369Z,5.95
2023-01-03T03:24:47.854Z,4.40
2023-01-03T03:27:54.318Z,6.22
2023-01-03T03:30:44.006Z,5.32
2023-01-03T03:33:32.723Z,6.03
2023-01-03T03:36:33.331Z,7.93
2023-01-03T03:39:37.453Z,6.68
2023-01-03T03:43:06.308Z,8.87
2023-01-03T03:46:27.976Z,6.22
2023-01-03T03:49:37.635Z,5.93
2023-01-03T03:52:28.720Z,5.55
2023-01-03T03:55:24.123Z,8.57
2023-01-03T03:58:15.217Z,8.07
2023-01-03T04:01:01.699Z,5.70
2023-01-03T04:03:49.859Z,9.00
2023-01-03T04:06:40.655Z,7.63
2023-01-03T04:09:26.271Z,6.97
2023-01-03T04:12:11.700Z,6.03
2023-01-03T04:14:57.317Z,5.13
2023-01-03T04:17:43.519Z,6.15
2023-01-03T04:20:29.596Z,5.18
2023-01-03T04:23:14.937Z,4.85
2023-01-03T04:26:00.417Z,5.47
2023-01-03T04:28:46.175Z,4.82
2023-01-03T04:31:31.811Z,6.22
2023-01-03T04:34:17.217Z,6.18
2023-01-03T04:37:02.678Z,6.63
2023-01-03T04:39:48.344Z,4.95
2023-01-03T04:42:52.404Z,6.03
2023-01-03T04:45:37.879Z,6.80
2023-01-03T04:48:23.124Z,6.13
2023-01-03T04:51:08.983Z,5.57
2023-01-03T04:53:54.473Z,8.07
2023-01-03T04:56:39.988Z,7.90
2023-01-03T04:59:25.472Z,8.48
2023-01-03T05:02:11.198Z,6.35
2023-01-03T05:04:56.942Z,5.72
2023-01-03T05:07:42.330Z,5.30
2023-01-03T05:10:27.813Z,5.85
2023-01-03T05:13:13.229Z,7.20
2023-01-03T05:16:06.231Z,5.88
2023-01-03T05:18:52.137Z,6.57
2023-01-03T05:21:56.127Z,6.97
2023-01-03T05:24:59.872Z,5.97
2023-01-03T05:27:45.424Z,6.18
2023-01-03T05:30:31.055Z,5.03
2023-01-03T05:33:16.548Z,6.38
2023-01-03T05:36:02.657Z,5.95
2023-01-03T05:38:48.371Z,5.85
2023-01-03T05:41:52.924Z,5.68
2023-01-03T05:44:38.241Z,9.23
2023-01-03T05:47:23.806Z,6.68
2023-01-03T05:50:09.061Z,6.70
2023-01-03T05:52:54.388Z,6.28
2023-01-03T05:55:40.187Z,7.88
2023-01-03T05:58:25.510Z,5.82
2023-01-03T06:01:12.473Z,10.02
2023-01-03T06:03:57.977Z,8.32
2023-01-03T06:06:43.481Z,7.40
2023-01-03T06:09:29.030Z,7.15
2023-01-03T06:12:14.603Z,6.03
2023-01-03T06:15:00.108Z,5.63
2023-01-03T06:18:02.656Z,5.95
2023-01-03T06:20:48.499Z,5.32
2023-01-03T06:23:34.204Z,5.97
2023-01-03T06:26:22.185Z,7.95
2023-01-03T06:29:07.938Z,6.38
2023-01-03T06:31:53.566Z,8.20
2023-01-03T06:34:39.082Z,8.23
2023-01-03T06:37:24.445Z,10.02
2023-01-03T06:40:10.504Z,9.63
2023-01-03T06:42:55.842Z,8.15
2023-01-03T06:46:03.488Z,9.27
2023-01-03T06:49:07.080Z,11.80
2023-01-03T06:52:10.900Z,9.07
2023-01-03T06:54:56.219Z,8.82
2023-01-03T06:57:41.812Z,8.30
2023-01-03T07:00:27.276Z,10.10
2023-01-03T07:03:13.032Z,8.50
2023-01-03T07:05:58.479Z,9.77
2023-01-03T07:08:48.085Z,7.38
2023-01-03T07:11:34.230Z,6.35
2023-01-03T07:14:20.098Z,6.82
2023-01-03T07:17:05.191Z,9.18
2023-01-03T07:19:50.823Z,6.15
2023-01-03T07:22:36.295Z,6.78
2023-01-03T07:25:21.725Z,6.95
2023-01-03T07:28:14.364Z,8.90
2023-01-03T07:31:01.990Z,9.20
2023-01-03T07:33:47.300Z,7.05
2023-01-03T07:36:32.602Z,11.93
2023-01-03T07:39:18.138Z,8.82
2023-01-03T07:42:22.135Z,11.00
2023-01-03T07:45:08.192Z,11.43
2023-01-03T07:47:54.509Z,12.63
2023-01-03T07:50:40.323Z,15.68
2023-01-03T07:53:26.203Z,14.50
2023-01-03T07:56:14.211Z,17.75
2023-01-03T07:59:00.022Z,14.68
2023-01-03T08:01:45.854Z,13.73
2023-01-03T08:04:31.230Z,15.52
2023-01-03T08:07:16.778Z,12.88
2023-01-03T08:10:20.763Z,14.60
2023-01-03T08:13:18.757Z,11.25
2023-01-03T08:16:04.638Z,12.80
2023-01-03T08:18:50.189Z,13.07
2023-01-03T08:21:35.442Z,14.40
2023-01-03T08:24:20.960Z,14.27
2023-01-03T08:27:06.466Z,10.57
2023-01-03T08:29:52.171Z,10.98
2023-01-03T08:32:38.864Z,9.52
2023-01-03T08:35:26.418Z,8.02
2023-01-03T08:38:16.697Z,12.10
2023-01-03T08:41:05.729Z,11.23
2023-01-03T08:43:51.536Z,10.93
2023-01-03T08:46:40.796Z,10.98
2023-01-03T08:49:26.547Z,10.70
2023-01-03T08:52:12.092Z,9.25
2023-01-03T08:54:57.317Z,8.95
2023-01-03T08:57:42.867Z,10.32
2023-01-03T09:00:29.286Z,8.95
2023-01-03T09:03:15.288Z,7.50
2023-01-03T09:06:03.606Z,8.52
2023-01-03T09:08:49.012Z,7.03
2023-01-03T09:11:34.984Z,8.60
2023-01-03T09:14:20.730Z,4.57
2023-01-03T09:17:05.975Z,3.28
2023-01-03T09:19:51.603Z,2.72
2023-01-03T09:22:36.850Z,2.63
2023-01-03T09:25:22.660Z,1.08
2023-01-03T09:28:07.832Z,2.22
2023-01-03T09:30:53.693Z,2.17
2023-01-03T09:33:38.908Z,1.75
2023-01-03T09:36:24.135Z,0.93
2023-01-03T09:39:09.640Z,1.38
2023-01-03T09:42:13.722Z,1.67
2023-01-03T09:45:00.462Z,1.20
2023-01-03T09:47:46.471Z,1.10
2023-01-03T09:51:14.905Z,3.10
2023-01-03T09:54:02.036Z,1.58
2023-01-03T09:57:06.562Z,1.73
2023-01-03T10:00:10.495Z,1.77
2023-01-03T10:03:34.295Z,3.63
2023-01-03T10:06:50.955Z,2.17
2023-01-03T10:09:57.526Z,3.00
2023-01-03T10:12:59.055Z,3.00
2023-01-03T10:16:19.734Z,2.40
2023-01-03T10:19:20.086Z,2.05
2023-01-03T10:22:08.338Z,2.92
2023-01-03T10:25:17.922Z,2.72
2023-01-03T10:28:18.043Z,1.85
2023-01-03T10:31:25.624Z,3.08
2023-01-03T10:34:12.254Z,1.35
2023-01-03T10:36:57.980Z,3.03
2023-01-03T10:39:43.539Z,2.42
2023-01-03T10:42:32.756Z,2.05
2023-01-03T10:45:20.314Z,3.28
2023-01-03T10:48:05.814Z,3.75
2023-01-03T10:50:51.585Z,4.22
2023-01-03T10:53:42.001Z,2.53
2023-01-03T10:56:30.499Z,4.03
2023-01-03T10:59:17.864Z,2.88
2023-01-03T11:02:12.854Z,4.93
2023-01-03T11:05:13.059Z,1.55
2023-01-03T11:08:02.519Z,2.08
2023-01-03T11:10:52.754Z,3.08
2023-01-03T11:13:40.637Z,2.95
2023-01-03T11:16:32.026Z,2.10
2023-01-03T11:19:18.780Z,5.05
2023-01-03T11:22:21.703Z,4.57
2023-01-03T11:25:35.197Z,3.28
2023-01-03T11:28:35.847Z,4.10
2023-01-03T11:31:41.957Z,3.20
2023-01-03T11:35:20.765Z,5.47
2023-01-03T11:38:27.045Z,4.90
2023-01-03T11:41:40.387Z,3.85
2023-01-03T11:44:34.591Z,4.40
2023-01-03T11:47:35.721Z,4.25
2023-01-03T11:50:59.068Z,2.75
2023-01-03T11:54:00.709Z,3.42
2023-01-03T11:56:49.026Z,3.30
2023-01-03T12:00:09.656Z,2.50
2023-01-03T12:03:14.193Z,3.10
2023-01-03T12:06:10.993Z,5.03
2023-01-03T12:09:30.759Z,2.88
2023-01-03T12:12:40.076Z,5.10
2023-01-03T12:15:36.592Z,2.90
2023-01-03T12:19:06.991Z,1.83
2023-01-03T12:22:27.600Z,3.63
2023-01-03T12:25:26.835Z,3.95
2023-01-03T12:28:22.515Z,4.95
2023-01-03T12:31:19.418Z,3.85
2023-01-03T12:34:42.719Z,5.13
2023-01-03T12:37:30.817Z,2.65
2023-01-03T12:40:50.483Z,2.63
2023-01-03T12:43:53.260Z,3.45
2023-01-03T12:46:45.622Z,2.72
2023-01-03T12:50:16.264Z,2.95
2023-01-03T12:53:13.733Z,2.85
2023-01-03T12:56:17.932Z,3.08
2023-01-03T12:59:25.834Z,3.20
2023-01-03T13:02:21.928Z,3.83
2023-01-03T13:05:31.550Z,2.85
2023-01-03T13:08:37.913Z,2.92
2023-01-03T13:11:28.597Z,2.40
2023-01-03T13:14:25.905Z,2.90
2023-01-03T13:17:18.115Z,2.88
2023-01-03T13:20:31.314Z,4.60
2023-01-03T13:23:53.542Z,3.70
2023-01-03T13:26:38.859Z,4.57
2023-01-03T13:29:33.634Z,4.05
2023-01-03T13:32:22.262Z,3.60
2023-01-03T13:35:17.047Z,3.85
2023-01-03T13:38:25.477Z,4.93
2023-01-03T13:41:32.713Z,4.25
2023-01-03T13:44:23.816Z,4.85
2023-01-03T13:47:23.931Z,2.60
2023-01-03T13:50:20.818Z,3.92
2023-01-03T13:53:12.320Z,3.58
2023-01-03T13:56:24.251Z,4.25
2023-01-03T13:59:18.695Z,4.88
2023-01-03T14:02:08.813Z,3.47
2023-01-03T14:05:05.257Z,4.18
2023-01-03T14:08:05.593Z,4.68
2023-01-03T14:11:18.929Z,3.92
2023-01-03T14:14:11.607Z,5.45
2023-01-03T14:16:58.822Z,2.75
2023-01-03T14:19:51.396Z,4.60
2023-01-03T14:22:44.084Z,3.45
2023-01-03T14:25:38.192Z,3.72
2023-01-03T14:28:25.152Z,3.00
2023-01-03T14:31:26.926Z,3.75
2023-01-03T14:34:42.730Z,2.97
2023-01-03T14:37:28.255Z,3.25
2023-01-03T14:40:19.765Z,2.95
2023-01-03T14:43:05.523Z,4.43
2023-01-03T14:45:56.314Z,2.90
2023-01-03T14:48:46.805Z,3.88
2023-01-03T14:51:34.455Z,3.35
2023-01-03T14:54:20.502Z,2.80
2023-01-03T14:57:06.329Z,3.20
2023-01-03T14:59:52.971Z,3.63
2023-01-03T15:02:40.233Z,3.70
2023-01-03T15:05:29.956Z,3.50
2023-01-03T15:08:15.351Z,5.75
2023-01-03T15:11:06.022Z,6.03
2023-01-03T15:14:05.099Z,3.40
2023-01-03T15:16:51.462Z,3.47
2023-01-03T15:19:39.760Z,3.10
2023-01-03T15:22:32.917Z,3.92
2023-01-03T15:25:40.756Z,5.53
2023-01-03T15:28:32.392Z,4.57
2023-01-03T15:31:23.864Z,2.58
2023-01-03T15:34:16.244Z,2.55
2023-01-03T15:37:22.726Z,3.08
2023-01-03T15:40:11.545Z,2.97
2023-01-03T15:43:21.784Z,3.20
2023-01-03T15:46:12.443Z,3.13
2023-01-03T15:48:57.808Z,3.88
2023-01-03T15:51:43.033Z,3.45
2023-01-03T15:54:28.636Z,4.15
2023-01-03T15:57:20.798Z,5.05
2023-01-03T16:00:10.682Z,4.35
2023-01-03T16:02:56.245Z,4.75
2023-01-03T16:05:42.029Z,4.80
2023-01-03T16:08:41.064Z,4.97
2023-01-03T16:11:33.718Z,5.15
2023-01-03T16:14:23.763Z,5.78
2023-01-03T16:17:20.849Z,6.13
2023-01-03T16:20:16.044Z,6.73
2023-01-03T16:23:02.166Z,4.13
2023-01-03T16:25:47.606Z,4.93
2023-01-03T16:28:34.039Z,5.43
2023-01-03T16:31:32.126Z,3.75
2023-01-03T16:34:24.629Z,3.45
2023-01-03T16:37:13.101Z,3.72
2023-01-03T16:39:59.027Z,4.93
2023-01-03T16:42:44.603Z,5.18
2023-01-03T16:45:30.228Z,5.57
2023-01-03T16:48:23.527Z,6.68
2023-01-03T16:51:18.323Z,6.75
2023-01-03T16:54:08.195Z,7.50
2023-01-03T16:56:53.510Z,8.00
2023-01-03T16:59:39.009Z,7.28
2023-01-03T17:02:24.919Z,6.53
2023-01-03T17:05:10.883Z,8.13
2023-01-03T17:08:05.995Z,7.07
2023-01-03T17:10:57.193Z,6.40
2023-01-03T17:13:44.862Z,6.55
2023-01-03T17:16:37.186Z,7.82
2023-01-03T17:20:02.928Z,7.80
2023-01-03T17:22:31.567Z,7.75
2023-01-03T17:25:17.325Z,9.07
2023-01-03T17:28:02.692Z,6.57
2023-01-03T17:30:51.138Z,10.23
2023-01-03T17:33:36.764Z,7.50
2023-01-03T17:36:33.457Z,7.97
2023-01-03T17:39:19.623Z,8.00
2023-01-03T17:42:19.057Z,6.95
2023-01-03T17:45:24.023Z,8.77
2023-01-03T17:48:31.964Z,12.20
2023-01-03T17:51:17.590Z,10.40
2023-01-03T17:54:04.126Z,8.50
2023-01-03T17:56:49.669Z,10.50
2023-01-03T17:59:35.130Z,8.52
2023-01-03T18:02:23.820Z,11.38
2023-01-03T18:05:17.539Z,9.83
2023-01-03T18:10:53.374Z,10.90
2023-01-03T18:13:39.613Z,8.50
2023-01-03T18:16:24.962Z,9.63
2023-01-03T18:19:10.940Z,10.83
2023-01-03T18:21:56.423Z,9.40
2023-01-03T18:24:41.799Z,10.55
2023-01-03T18:27:27.825Z,10.10
2023-01-03T18:30:15.658Z,11.00
2023-01-03T18:33:00.868Z,8.80
2023-01-03T18:35:46.776Z,11.17
2023-01-03T18:38:41.387Z,10.73
2023-01-03T18:41:29.861Z,9.30
2023-01-03T18:44:23.167Z,10.17
2023-01-03T18:47:12.483Z,9.37
2023-01-03T18:49:57.671Z,9.17
2023-01-03T18:52:43.007Z,10.50
2023-01-03T18:55:31.884Z,9.40
2023-01-03T18:58:41.241Z,8.93
2023-01-03T19:01:27.152Z,9.57
2023-01-03T19:04:12.487Z,8.37
2023-01-03T19:06:58.633Z,8.57
2023-01-03T19:09:44.311Z,7.87
2023-01-03T19:12:32.421Z,8.23
2023-01-03T19:15:28.319Z,7.23
2023-01-03T19:18:13.881Z,9.27
2023-01-03T19:20:59.284Z,11.87
2023-01-03T19:23:47.599Z,12.40
2023-01-03T19:26:56.158Z,9.63
2023-01-03T19:29:42.532Z,11.70
2023-01-03T19:32:29.496Z,11.70
2023-01-03T19:35:16.072Z,13.03
2023-01-03T19:38:01.376Z,11.70
2023-01-03T19:40:47.043Z,13.00
2023-01-03T19:43:33.326Z,11.20
2023-01-03T19:46:18.910Z,11.13
2023-01-03T19:49:10.768Z,12.20
2023-01-03T19:51:57.148Z,11.97
2023-01-03T19:54:43.490Z,10.85
2023-01-03T19:57:33.457Z,9.73
2023-01-03T20:00:23.114Z,9.38
2023-01-03T20:03:22.824Z,10.40
2023-01-03T20:06:17.284Z,10.30
2023-01-03T20:09:02.971Z,11.35
2023-01-03T20:11:52.585Z,10.83
2023-01-03T20:14:41.331Z,11.80
2023-01-03T20:17:27.305Z,14.02
2023-01-03T20:20:14.531Z,12.67
2023-01-03T20:23:06.484Z,12.02
2023-01-03T20:25:52.860Z,12.57
2023-01-03T20:28:38.229Z,15.80
2023-01-03T20:31:25.056Z,13.35
2023-01-03T20:34:10.868Z,11.50
2023-01-03T20:36:56.574Z,13.18
2023-01-03T20:39:43.446Z,11.10
2023-01-03T20:42:28.948Z,13.17
2023-01-03T20:45:15.948Z,12.50
2023-01-03T20:48:01.507Z,12.95
2023-01-03T20:50:47.311Z,10.68
2023-01-03T20:53:32.529Z,12.73
2023-01-03T20:56:17.937Z,13.52
2023-01-03T20:59:03.935Z,13.47
2023-01-03T21:01:49.954Z,13.18
2023-01-03T21:04:35.851Z,14.15
2023-01-03T21:07:28.071Z,12.48
2023-01-03T21:10:29.711Z,13.90
2023-01-03T21:13:15.079Z,15.73
2023-01-03T21:16:00.756Z,12.55
2023-01-03T21:18:46.153Z,15.13
2023-01-03T21:21:32.527Z,14.05
2023-01-03T21:24:20.320Z,13.98
2023-01-03T21:27:05.720Z,13.90
2023-01-03T21:29:51.163Z,14.20
2023-01-03T21:32:36.879Z,15.30
2023-01-03T21:35:24.404Z,12.88
2023-01-03T21:38:10.048Z,12.15
2023-01-03T21:40:55.250Z,14.73
2023-01-03T21:43:40.752Z,14.27
2023-01-03T21:46:27.305Z,14.68
2023-01-03T21:49:12.709Z,13.02
2023-01-03T21:51:58.304Z,14.23
2023-01-03T21:54:43.862Z,15.18
2023-01-03T21:57:29.922Z,15.45
2023-01-03T22:00:15.797Z,13.95
2023-01-03T22:03:19.802Z,14.33
2023-01-03T22:06:10.978Z,15.48
2023-01-03T22:08:56.471Z,17.37
2023-01-03T22:11:41.942Z,20.58
2023-01-03T22:14:27.562Z,17.98
2023-01-03T22:17:13.491Z,14.02
2023-01-03T22:19:59.109Z,17.50
2023-01-03T22:22:45.114Z,14.97
2023-01-03T22:51:05.497Z,14.60
2023-01-03T22:53:51.044Z,15.57
2023-01-03T22:56:36.256Z,14.43
2023-01-03T22:59:22.224Z,13.67
2023-01-03T23:02:07.758Z,16.80
2023-01-03T23:04:53.116Z,15.75
2023-01-03T23:07:45.002Z,18.03
2023-01-03T23:10:30.212Z,16.97
2023-01-03T23:13:15.714Z,15.03
2023-01-03T23:16:02.091Z,15.40
2023-01-03T23:18:47.459Z,14.03
2023-01-03T23:21:33.911Z,16.20
2023-01-03T23:24:23.084Z,16.40
2023-01-03T23:27:08.660Z,19.73
2023-01-03T23:29:55.092Z,16.45
2023-01-03T23:32:40.796Z,17.87
2023-01-03T23:35:26.343Z,19.00
2023-01-03T23:38:11.860Z,18.87
2023-01-03T23:40:57.658Z,22.77
2023-01-03T23:43:43.283Z,15.13
2023-01-03T23:46:29.056Z,16.50
2023-01-03T23:49:16.256Z,16.75
2023-01-03T23:52:01.518Z,19.50
2023-01-03T23:54:47.227Z,17.30
2023-01-03T23:57:32.505Z,18.00
